Time;durP1;ratioP1;P1;durP2;ratioP2;P2;SDS_P1;SDS_P2;PMS_P1;PMS_P2;Temp;Humidity;BMP_temperature;BMP_pressure;BME280_temperature;BME280_humidity;BME280_pressure;Samples;Min_cycle;Max_cycle;Signal;HPM_P1;HPM_P2
2023/12/09 00:00:50;;;;;;;17.20;12.33;;;;;;;5.22;77.81;96049.66;5007787;28;20176;-67
2023/12/09 00:03:15;;;;;;;17.13;13.03;;;;;;;5.21;78.03;96049.69;5009021;28;20637;-70
2023/12/09 00:05:41;;;;;;;20.03;13.10;;;;;;;5.20;78.51;96051.44;5008931;28;20180;-69
2023/12/09 00:08:06;;;;;;;19.27;11.83;;;;;;;5.18;78.65;96050.63;5008652;28;20176;-67
2023/12/09 00:10:31;;;;;;;15.57;11.20;;;;;;;5.19;78.50;96059.28;5008835;28;20271;-68
2023/12/09 00:12:57;;;;;;;19.13;13.87;;;;;;;5.20;77.94;96063.59;5008808;28;21006;-67
2023/12/09 00:15:23;;;;;;;19.30;13.00;;;;;;;5.17;77.85;96059.31;5008910;28;20263;-68
2023/12/09 00:17:48;;;;;;;17.70;13.20;;;;;;;5.23;78.24;96050.50;5008562;28;20601;-69
2023/12/09 00:20:13;;;;;;;16.40;12.13;;;;;;;5.26;77.98;96051.25;5009113;28;20545;-68
2023/12/09 00:22:40;;;;;;;19.30;12.93;;;;;;;5.27;77.64;96052.97;5009151;28;20572;-67
2023/12/09 00:25:06;;;;;;;16.00;12.67;;;;;;;5.32;77.84;96054.59;5008243;28;20558;-70
2023/12/09 00:27:32;;;;;;;18.70;13.60;;;;;;;5.33;77.67;96049.31;5008102;28;20438;-68
2023/12/09 00:29:57;;;;;;;17.53;11.60;;;;;;;5.23;77.77;96053.94;5008797;28;20168;-68
2023/12/09 00:32:22;;;;;;;17.13;12.90;;;;;;;5.35;77.54;96050.13;5008538;28;20204;-69
2023/12/09 00:34:48;;;;;;;21.40;12.13;;;;;;;5.29;77.10;96048.56;5008523;28;20168;-68
2023/12/09 00:37:13;;;;;;;15.40;12.07;;;;;;;5.18;77.47;96044.56;5007768;28;20199;-68
2023/12/09 00:39:39;;;;;;;17.33;13.10;;;;;;;5.23;77.75;96043.53;5008135;28;20603;-67
2023/12/09 00:42:04;;;;;;;18.60;14.07;;;;;;;5.20;77.58;96042.78;5007763;28;20304;-67
2023/12/09 00:44:29;;;;;;;17.80;12.87;;;;;;;5.25;77.73;96046.94;5007959;28;20164;-68
2023/12/09 00:46:55;;;;;;;15.60;12.50;;;;;;;5.23;77.91;96043.53;5007427;28;20634;-67
2023/12/09 00:49:20;;;;;;;17.37;12.30;;;;;;;5.19;78.00;96041.06;5007633;28;20176;-67
2023/12/09 00:51:45;;;;;;;19.20;12.83;;;;;;;5.21;77.64;96053.13;5004675;28;20291;-67
2023/12/09 00:54:11;;;;;;;17.07;12.67;;;;;;;5.18;77.83;96053.22;5007954;28;20233;-69
2023/12/09 00:56:36;;;;;;;17.30;11.50;;;;;;;5.27;77.59;96058.16;5007996;28;20192;-67
2023/12/09 00:59:02;;;;;;;19.70;13.57;;;;;;;5.26;77.69;96064.25;5008597;28;20172;-67
2023/12/09 01:01:28;;;;;;;17.57;12.50;;;;;;;5.33;77.37;96067.53;5009294;28;20168;-69
2023/12/09 01:03:53;;;;;;;20.87;13.23;;;;;;;5.18;77.78;96070.59;5014893;28;20411;-69
2023/12/09 01:06:19;;;;;;;18.50;12.23;;;;;;;5.14;77.98;96068.97;5010065;28;20238;-69
2023/12/09 01:08:44;;;;;;;19.10;12.97;;;;;;;5.17;77.77;96069.72;5009379;28;20681;-68
2023/12/09 01:11:09;;;;;;;18.10;13.80;;;;;;;5.18;78.08;96074.03;5009421;28;20200;-67
2023/12/09 01:13:35;;;;;;;15.30;12.03;;;;;;;5.12;78.15;96075.94;5009135;28;20172;-67
2023/12/09 01:16:00;;;;;;;18.10;13.63;;;;;;;5.24;77.75;96065.19;5009080;28;20886;-67
2023/12/09 01:18:25;;;;;;;19.27;14.40;;;;;;;5.16;78.23;96073.22;5008930;28;20175;-68
2023/12/09 01:20:51;;;;;;;17.97;13.97;;;;;;;5.17;77.89;96069.72;5008515;28;20176;-69
2023/12/09 01:23:16;;;;;;;21.00;14.67;;;;;;;5.20;77.49;96063.59;5007924;28;20199;-69
2023/12/09 01:25:41;;;;;;;24.60;15.23;;;;;;;5.25;77.38;96072.13;5007991;28;20230;-69
2023/12/09 01:28:07;;;;;;;21.13;15.60;;;;;;;5.22;78.00;96070.47;5007974;28;20172;-68
2023/12/09 01:30:33;;;;;;;21.67;15.53;;;;;;;5.21;77.97;96067.88;5008232;28;20200;-67
2023/12/09 01:32:59;;;;;;;27.73;16.93;;;;;;;5.24;77.90;96073.00;5004400;28;20823;-67
2023/12/09 01:35:24;;;;;;;32.40;19.27;;;;;;;5.20;77.84;96069.66;4986706;28;20185;-67
2023/12/09 01:37:49;;;;;;;23.27;16.80;;;;;;;5.26;77.35;96066.00;4988188;28;20193;-67
2023/12/09 01:40:15;;;;;;;26.97;18.63;;;;;;;5.27;77.63;96081.59;4988022;28;20252;-67
2023/12/09 01:42:44;;;;;;;26.00;19.63;;;;;;;5.22;77.54;96073.06;4988248;28;20180;-68
2023/12/09 01:45:10;;;;;;;30.03;19.70;;;;;;;5.25;77.41;96082.53;4988169;28;20183;-67
2023/12/09 01:47:38;;;;;;;27.30;20.20;;;;;;;5.23;77.94;96086.91;4988317;28;20432;-67
2023/12/09 01:50:05;;;;;;;33.30;20.67;;;;;;;5.22;77.65;96098.19;4989441;28;20294;-68
2023/12/09 01:52:31;;;;;;;28.13;19.67;;;;;;;5.18;77.81;96096.59;5007556;28;20451;-69
2023/12/09 01:54:58;;;;;;;28.63;21.23;;;;;;;5.16;78.05;96099.22;5010165;28;20415;-68
2023/12/09 01:57:25;;;;;;;26.53;19.13;;;;;;;5.20;77.93;96102.63;5010889;28;20439;-67
2023/12/09 01:59:51;;;;;;;29.73;21.10;;;;;;;5.27;77.99;96105.00;5011233;28;21223;-68
2023/12/09 02:02:16;;;;;;;31.27;20.43;;;;;;;5.20;78.22;96100.00;5013297;28;20407;-70
2023/12/09 02:04:42;;;;;;;30.90;20.30;;;;;;;5.10;78.16;96109.78;5011944;28;20259;-69
2023/12/09 02:07:07;;;;;;;25.90;18.10;;;;;;;5.15;77.87;96107.06;5012879;28;20192;-68
2023/12/09 02:09:33;;;;;;;27.67;19.60;;;;;;;5.19;77.75;96122.56;5014059;28;20179;-68
2023/12/09 02:12:43;;;;;;;25.97;18.40;;;;;;;5.17;77.47;96126.94;5012801;28;20200;-68
2023/12/09 02:15:21;;;;;;;26.03;18.00;;;;;;;5.03;78.91;96121.25;5013874;28;20270;-69
2023/12/09 02:18:07;;;;;;;22.53;15.80;;;;;;;4.94;79.61;96124.09;5011940;28;20824;-67
2023/12/09 02:20:33;;;;;;;30.77;18.27;;;;;;;5.11;78.97;96127.13;5013184;28;20597;-69
2023/12/09 02:23:07;;;;;;;26.43;16.20;;;;;;;5.09;78.64;96128.91;5011021;28;20411;-67
2023/12/09 02:25:33;;;;;;;22.73;15.30;;;;;;;5.14;78.90;96126.19;5011485;28;20422;-69
2023/12/09 02:28:04;;;;;;;25.23;14.90;;;;;;;5.21;78.70;96118.16;5011018;28;20538;-68
2023/12/09 02:30:48;;;;;;;19.83;14.33;;;;;;;5.13;78.78;96124.50;5011443;28;20457;-69
2023/12/09 02:33:15;;;;;;;20.93;14.47;;;;;;;5.17;79.32;96129.53;5004860;28;20460;-68
2023/12/09 02:35:43;;;;;;;19.57;13.77;;;;;;;5.20;79.07;96120.81;4991144;28;20412;-69
2023/12/09 02:38:10;;;;;;;17.77;13.70;;;;;;;5.21;78.85;96128.56;4990977;28;20412;-67
2023/12/09 02:40:36;;;;;;;27.10;16.17;;;;;;;5.23;78.45;96126.78;4991441;28;20412;-68
2023/12/09 02:43:03;;;;;;;23.50;15.53;;;;;;;5.21;78.94;96135.53;4991059;28;20967;-67
2023/12/09 02:45:28;;;;;;;26.80;14.83;;;;;;;5.20;78.60;96126.88;4991288;28;20420;-67
2023/12/09 02:47:54;;;;;;;21.40;14.27;;;;;;;5.07;79.39;96133.28;4990787;28;20455;-68
2023/12/09 02:50:19;;;;;;;23.33;14.17;;;;;;;5.18;79.42;96133.03;4991615;28;20173;-68
2023/12/09 02:52:45;;;;;;;24.20;15.80;;;;;;;5.14;79.01;96127.03;4992008;28;20207;-68
2023/12/09 02:55:11;;;;;;;26.57;15.40;;;;;;;5.14;79.38;96136.59;4991997;28;20775;-68
2023/12/09 02:57:36;;;;;;;25.87;15.80;;;;;;;5.15;78.95;96130.47;4992036;28;20193;-69
2023/12/09 03:00:02;;;;;;;27.20;14.90;;;;;;;5.21;79.20;96138.97;4992126;28;20263;-69
2023/12/09 03:02:27;;;;;;;28.37;16.33;;;;;;;5.23;78.78;96128.53;4992732;28;20177;-68
2023/12/09 03:04:52;;;;;;;24.57;14.43;;;;;;;5.21;79.28;96127.72;4998579;28;20180;-68
2023/12/09 03:07:20;;;;;;;26.57;14.87;;;;;;;5.20;78.87;96118.22;4999276;28;20228;-68
2023/12/09 03:09:46;;;;;;;28.03;15.93;;;;;;;5.12;78.93;96096.75;4999436;28;20181;-67
2023/12/09 03:12:12;;;;;;;30.07;16.20;;;;;;;5.23;78.90;96084.31;4991666;28;20495;-67
2023/12/09 03:14:37;;;;;;;26.83;15.20;;;;;;;5.14;79.06;96074.16;4991154;28;20558;-66
2023/12/09 03:17:03;;;;;;;23.33;14.50;;;;;;;5.13;79.00;96083.72;4990622;28;20291;-68
2023/12/09 03:19:28;;;;;;;30.53;19.13;;;;;;;5.12;78.97;96086.34;4990882;28;20635;-69
2023/12/09 03:21:53;;;;;;;25.37;17.13;;;;;;;5.06;78.97;96108.19;4990369;28;20173;-67
2023/12/09 03:24:19;;;;;;;27.60;16.27;;;;;;;5.05;79.39;96099.50;4990020;28;20239;-67
2023/12/09 03:26:49;;;;;;;29.30;15.80;;;;;;;5.06;79.22;96096.03;4990268;28;20212;-69
2023/12/09 03:29:14;;;;;;;29.53;16.83;;;;;;;5.02;79.58;96088.34;4989837;28;20268;-69
2023/12/09 03:31:41;;;;;;;27.77;17.00;;;;;;;5.05;79.52;96081.31;4989994;28;20601;-68
2023/12/09 03:34:06;;;;;;;27.13;16.37;;;;;;;5.14;79.28;96087.16;5003346;28;20172;-68
2023/12/09 03:36:31;;;;;;;28.83;16.60;;;;;;;5.09;79.33;96075.13;5009119;28;20474;-67
2023/12/09 03:38:57;;;;;;;28.77;16.27;;;;;;;5.06;79.10;96075.22;5009681;28;20211;-68
2023/12/09 03:41:22;;;;;;;33.53;18.83;;;;;;;5.00;80.04;96077.97;5007935;28;20172;-67
2023/12/09 03:43:47;;;;;;;30.63;16.03;;;;;;;5.05;79.31;96067.47;5009747;28;20198;-68
2023/12/09 03:46:13;;;;;;;22.03;14.53;;;;;;;4.99;79.54;96068.50;5009331;28;20199;-68
2023/12/09 03:48:38;;;;;;;25.43;15.53;;;;;;;5.03;79.75;96071.84;5009570;28;20172;-67
2023/12/09 03:51:04;;;;;;;25.00;16.30;;;;;;;5.13;79.26;96075.06;5007817;28;20184;-68
2023/12/09 03:53:29;;;;;;;26.57;15.67;;;;;;;5.04;79.84;96074.41;5008940;28;20172;-67
2023/12/09 03:55:55;;;;;;;27.33;15.23;;;;;;;5.15;79.29;96062.84;5009224;28;20522;-69
2023/12/09 03:58:22;;;;;;;27.77;16.00;;;;;;;5.08;79.03;96057.00;5009417;28;20160;-69
2023/12/09 04:00:48;;;;;;;26.83;14.90;;;;;;;5.05;79.44;96060.50;5009274;28;20187;-68
2023/12/09 04:03:14;;;;;;;26.37;15.13;;;;;;;5.05;79.38;96059.66;5008960;28;20433;-66
2023/12/09 04:05:39;;;;;;;29.00;15.60;;;;;;;4.99;79.43;96063.28;5008846;28;20404;-66
2023/12/09 04:08:05;;;;;;;27.33;13.83;;;;;;;5.06;79.31;96066.56;5008940;28;20583;-69
2023/12/09 04:10:31;;;;;;;25.90;15.00;;;;;;;5.03;79.67;96066.63;5008836;28;20186;-68
2023/12/09 04:12:56;;;;;;;21.77;13.47;;;;;;;5.06;79.64;96071.78;5009225;28;20200;-68
2023/12/09 04:15:22;;;;;;;26.17;15.00;;;;;;;5.04;79.46;96066.59;5008833;28;21198;-67
2023/12/09 04:17:47;;;;;;;24.13;14.47;;;;;;;5.09;79.20;96063.88;5008078;28;20192;-68
2023/12/09 04:20:12;;;;;;;22.93;13.80;;;;;;;5.00;79.64;96067.59;5008897;28;20614;-68
2023/12/09 04:22:41;;;;;;;26.17;13.50;;;;;;;5.03;79.66;96064.03;5009068;28;20172;-68
2023/12/09 04:25:06;;;;;;;23.73;13.30;;;;;;;5.07;79.36;96063.91;5008967;28;20212;-70
2023/12/09 04:27:32;;;;;;;19.80;13.10;;;;;;;5.13;79.02;96060.31;5008645;28;20489;-68
2023/12/09 04:29:58;;;;;;;23.00;13.37;;;;;;;5.04;79.47;96060.56;5008841;28;20815;-67
2023/12/09 04:32:24;;;;;;;24.80;13.23;;;;;;;5.06;79.42;96050.97;5009636;28;20462;-68
2023/12/09 04:34:49;;;;;;;23.13;13.47;;;;;;;5.01;79.57;96052.84;4990143;28;20184;-66
2023/12/09 04:37:15;;;;;;;24.20;13.70;;;;;;;5.09;79.21;96043.06;4989689;28;20209;-66
2023/12/09 04:39:40;;;;;;;26.63;13.30;;;;;;;5.09;79.89;96046.53;4990192;28;20193;-67
2023/12/09 04:42:06;;;;;;;23.67;12.93;;;;;;;5.10;79.40;96052.56;4990617;28;20168;-67
2023/12/09 04:44:31;;;;;;;26.53;14.63;;;;;;;5.11;79.17;96053.44;4989802;28;20180;-69
2023/12/09 04:46:56;;;;;;;24.43;14.73;;;;;;;5.06;79.67;96059.63;4989525;28;20192;-69
2023/12/09 04:49:22;;;;;;;23.43;12.80;;;;;;;5.06;79.64;96053.56;4989997;28;20599;-67
2023/12/09 04:51:47;;;;;;;22.27;12.90;;;;;;;5.06;79.83;96062.22;4991355;28;21197;-66
2023/12/09 04:54:13;;;;;;;20.97;12.30;;;;;;;5.14;79.83;96072.41;4990335;28;20176;-67
2023/12/09 04:56:38;;;;;;;23.17;12.63;;;;;;;5.13;79.54;96075.91;4989500;28;20188;-70
2023/12/09 04:59:04;;;;;;;23.20;10.77;;;;;;;5.04;80.07;96066.59;4989721;28;20904;-68
2023/12/09 05:01:29;;;;;;;14.50;9.30;;;;;;;5.06;80.00;96072.63;4989028;28;20240;-67
2023/12/09 05:03:55;;;;;;;18.43;10.57;;;;;;;5.09;79.66;96074.28;4988893;28;20199;-66
2023/12/09 05:06:20;;;;;;;19.50;10.97;;;;;;;5.12;79.63;96074.19;4989803;28;20209;-68
2023/12/09 05:08:45;;;;;;;18.20;10.20;;;;;;;5.19;79.03;96078.31;4989108;28;20177;-67
2023/12/09 05:11:11;;;;;;;22.47;9.90;;;;;;;5.25;79.34;96075.56;4987577;28;20173;-67
2023/12/09 05:13:37;;;;;;;21.73;10.33;;;;;;;5.27;79.14;96073.78;4989405;28;20177;-69
2023/12/09 05:16:02;;;;;;;17.77;9.70;;;;;;;5.22;79.25;96061.78;4988738;28;20239;-68
2023/12/09 05:18:28;;;;;;;15.63;9.13;;;;;;;5.21;79.32;96076.53;4988633;28;20175;-67
2023/12/09 05:20:53;;;;;;;15.10;9.60;;;;;;;5.19;79.39;96070.53;4988966;28;20208;-68
2023/12/09 05:23:19;;;;;;;23.83;12.00;;;;;;;5.19;79.41;96077.47;4987518;28;20193;-68
2023/12/09 05:25:44;;;;;;;18.80;10.37;;;;;;;5.20;79.69;96067.03;4989641;28;20173;-68
2023/12/09 05:28:10;;;;;;;17.20;10.20;;;;;;;5.16;79.64;96073.22;4987444;28;20181;-68
2023/12/09 05:30:36;;;;;;;17.13;9.93;;;;;;;5.22;79.05;96077.38;4992524;28;20181;-68
2023/12/09 05:33:01;;;;;;;17.17;9.90;;;;;;;5.28;78.89;96066.81;4997468;28;20200;-69
2023/12/09 05:35:27;;;;;;;20.70;11.67;;;;;;;5.21;79.08;96066.13;5014440;28;20810;-69
2023/12/09 05:37:53;;;;;;;19.17;10.43;;;;;;;5.20;79.24;96063.59;5013507;28;21114;-69
2023/12/09 05:40:18;;;;;;;23.30;12.77;;;;;;;5.21;79.58;96063.53;5014838;28;20498;-68
2023/12/09 05:42:44;;;;;;;29.70;14.87;;;;;;;5.22;79.58;96057.44;5015610;28;20188;-68
2023/12/09 05:45:09;;;;;;;34.53;17.57;;;;;;;5.20;79.57;96056.63;5015532;28;20555;-68
2023/12/09 05:47:35;;;;;;;28.83;16.60;;;;;;;5.17;79.76;96048.91;5013536;28;20317;-68
2023/12/09 05:50:00;;;;;;;25.30;13.50;;;;;;;5.07;80.42;96055.28;5012742;28;20224;-68
2023/12/09 05:52:26;;;;;;;30.70;16.13;;;;;;;5.12;80.24;96052.53;4995613;28;20204;-68
2023/12/09 05:54:51;;;;;;;32.60;15.23;;;;;;;5.09;80.49;96054.31;4995309;28;20192;-68
2023/12/09 05:57:16;;;;;;;29.43;13.20;;;;;;;5.11;80.51;96066.44;4998010;28;20188;-68
2023/12/09 05:59:42;;;;;;;30.53;15.40;;;;;;;5.08;80.82;96060.44;5012384;28;20183;-67
2023/12/09 06:02:08;;;;;;;35.00;15.57;;;;;;;5.12;80.69;96049.94;5012193;28;20176;-69
2023/12/09 06:04:33;;;;;;;31.43;15.60;;;;;;;5.07;80.70;96052.66;5014116;28;20180;-68
2023/12/09 06:06:59;;;;;;;26.70;13.67;;;;;;;5.11;80.75;96043.88;5002605;28;20300;-68
2023/12/09 06:09:24;;;;;;;25.10;14.67;;;;;;;5.01;81.08;96052.84;4991787;28;20173;-68
2023/12/09 06:11:49;;;;;;;26.40;15.30;;;;;;;5.05;80.93;96052.69;4990698;28;20680;-70
2023/12/09 06:14:15;;;;;;;31.10;14.50;;;;;;;5.03;81.26;96059.72;4990733;28;20259;-69
2023/12/09 06:16:40;;;;;;;30.50;14.20;;;;;;;5.05;81.50;96057.91;4990467;28;20629;-69
2023/12/09 06:19:06;;;;;;;27.10;15.10;;;;;;;4.96;81.63;96058.19;4995211;28;20172;-69
2023/12/09 06:21:31;;;;;;;25.93;13.53;;;;;;;4.88;82.13;96060.13;5012126;28;20676;-69
2023/12/09 06:23:57;;;;;;;26.30;13.07;;;;;;;4.87;82.21;96063.63;4990807;28;20528;-69
2023/12/09 06:26:22;;;;;;;24.07;11.87;;;;;;;4.97;81.84;96061.63;4997391;28;20298;-70
2023/12/09 06:28:48;;;;;;;29.90;14.60;;;;;;;5.06;81.29;96059.63;5010050;28;20184;-69
2023/12/09 06:31:13;;;;;;;23.63;10.90;;;;;;;5.15;81.20;96057.66;5008605;28;20204;-69
2023/12/09 06:33:38;;;;;;;26.60;12.83;;;;;;;5.09;81.20;96059.53;5000939;28;20640;-68
2023/12/09 06:36:06;;;;;;;26.10;12.27;;;;;;;5.14;80.96;96054.19;4990604;28;20196;-68
2023/12/09 06:38:34;;;;;;;24.57;12.83;;;;;;;5.12;81.37;96056.00;4990985;28;20184;-67
2023/12/09 06:40:59;;;;;;;28.00;12.97;;;;;;;5.05;81.62;96063.09;5013652;28;20468;-68
2023/12/09 06:43:25;;;;;;;22.10;12.37;;;;;;;5.13;80.86;96065.50;5014752;28;20415;-68
2023/12/09 06:45:50;;;;;;;24.77;13.20;;;;;;;5.05;81.50;96054.44;5015178;28;20176;-68
2023/12/09 06:48:16;;;;;;;29.30;13.33;;;;;;;4.99;81.53;96049.44;5015543;28;20176;-68
2023/12/09 06:50:42;;;;;;;28.60;12.10;;;;;;;5.08;81.40;96051.78;5013947;28;20175;-67
2023/12/09 06:53:09;;;;;;;28.93;13.10;;;;;;;5.04;81.03;96044.97;5010175;28;20570;-66
2023/12/09 06:55:35;;;;;;;21.20;10.03;;;;;;;5.03;81.33;96054.50;5008981;28;20421;-66
2023/12/09 06:58:02;;;;;;;25.03;12.10;;;;;;;4.95;81.99;96051.25;5009185;28;20434;-70
2023/12/09 07:00:28;;;;;;;31.80;13.27;;;;;;;5.06;81.44;96041.41;5009185;28;20180;-69
2023/12/09 07:02:54;;;;;;;26.70;13.40;;;;;;;5.09;81.25;96038.72;5008957;28;21329;-69
2023/12/09 07:05:20;;;;;;;31.77;15.30;;;;;;;5.07;81.94;96039.66;5009175;28;20469;-70
2023/12/09 07:07:48;;;;;;;29.60;14.30;;;;;;;5.24;81.27;96026.16;5003489;28;20212;-70
2023/12/09 07:10:13;;;;;;;26.03;13.47;;;;;;;4.97;82.57;96035.63;4999765;28;20435;-70
2023/12/09 07:12:38;;;;;;;30.50;14.27;;;;;;;4.91;83.20;96022.78;4991712;28;20470;-69
2023/12/09 07:15:05;;;;;;;24.20;15.40;;;;;;;4.76;82.97;96018.88;5002088;28;20568;-69
2023/12/09 07:17:30;;;;;;;27.90;12.50;;;;;;;4.89;83.17;96030.66;4999919;28;20227;-69
2023/12/09 07:19:56;;;;;;;25.00;14.50;;;;;;;5.06;82.90;96017.16;4998583;28;20809;-69
2023/12/09 07:22:22;;;;;;;27.10;15.50;;;;;;;5.14;82.42;96024.75;4999372;28;20187;-69
2023/12/09 07:24:48;;;;;;;29.10;13.30;;;;;;;5.15;81.92;96019.50;4999155;28;20180;-69
2023/12/09 07:27:13;;;;;;;31.23;15.53;;;;;;;5.22;81.48;96020.16;5003164;28;20455;-69
2023/12/09 07:29:38;;;;;;;23.00;13.13;;;;;;;5.15;81.97;96022.09;5000004;28;20212;-68
2023/12/09 07:32:04;;;;;;;31.20;14.30;;;;;;;5.13;82.32;96021.28;5003539;28;20214;-70
2023/12/09 07:34:30;;;;;;;23.67;12.50;;;;;;;5.15;82.05;96024.72;5000017;28;20184;-69
2023/12/09 07:36:56;;;;;;;25.87;13.77;;;;;;;5.30;81.88;96021.66;5003045;28;20683;-66
2023/12/09 07:39:22;;;;;;;28.70;11.83;;;;;;;5.30;81.91;96021.66;5007003;28;20338;-66
2023/12/09 07:41:50;;;;;;;24.13;13.43;;;;;;;5.40;81.21;96034.41;5003585;28;20946;-66
2023/12/09 07:44:20;;;;;;;33.50;13.07;;;;;;;5.43;81.13;96029.97;5000537;28;20187;-65
2023/12/09 07:46:46;;;;;;;26.03;13.80;;;;;;;5.47;80.94;96035.91;4999369;28;20546;-65
2023/12/09 07:49:11;;;;;;;30.33;13.97;;;;;;;5.42;81.03;96043.00;5005778;28;20577;-67
2023/12/09 07:51:37;;;;;;;25.87;11.63;;;;;;;5.42;80.97;96041.25;5004346;28;20952;-66
2023/12/09 07:54:02;;;;;;;20.10;10.60;;;;;;;5.49;80.68;96047.13;5003361;28;20977;-66
2023/12/09 07:56:28;;;;;;;25.53;11.07;;;;;;;5.52;80.71;96054.84;4994966;28;20207;-69
2023/12/09 07:58:53;;;;;;;26.80;11.57;;;;;;;5.49;80.64;96053.19;5001374;28;20185;-68
2023/12/09 08:01:19;;;;;;;23.37;11.97;;;;;;;5.53;80.39;96051.38;5004131;28;20188;-69
2023/12/09 08:03:44;;;;;;;16.10;7.07;;;;;;;8.52;89.12;96037.31;4990341;28;20184;-69
2023/12/09 08:06:11;;;;;;;28.50;12.27;;;;;;;9.47;69.88;96033.19;4987930;28;20204;-68
2023/12/09 08:08:38;;;;;;;36.20;12.40;;;;;;;7.16;74.05;96040.84;4988102;28;20177;-69
2023/12/09 08:11:04;;;;;;;22.60;12.50;;;;;;;6.57;75.89;96040.25;4988032;28;20412;-68
2023/12/09 08:13:29;;;;;;;52.27;14.00;;;;;;;6.14;78.31;96035.59;4987998;28;20867;-73
2023/12/09 08:15:55;;;;;;;40.70;13.30;;;;;;;5.97;79.14;96035.28;4998746;28;20485;-70
2023/12/09 08:18:20;;;;;;;24.67;12.57;;;;;;;5.89;79.65;96032.91;5008062;28;20182;-70
2023/12/09 08:20:46;;;;;;;24.10;12.77;;;;;;;5.83;79.59;96027.88;5008418;28;20654;-71
2023/12/09 08:23:11;;;;;;;19.50;11.10;;;;;;;5.85;79.51;96036.50;5008556;28;20172;-69
2023/12/09 08:25:37;;;;;;;20.10;12.43;;;;;;;5.72;80.43;96046.47;5003281;28;20179;-70
2023/12/09 08:28:02;;;;;;;20.47;12.00;;;;;;;5.67;80.95;96032.69;4997712;28;20185;-68
2023/12/09 08:30:28;;;;;;;25.27;12.60;;;;;;;5.74;80.75;96034.25;4993621;28;20187;-68
2023/12/09 08:32:53;;;;;;;25.20;11.67;;;;;;;5.77;80.63;96025.50;4997416;28;20223;-71
2023/12/09 08:35:19;;;;;;;23.80;12.40;;;;;;;5.71;80.87;96019.53;5013682;28;20238;-68
2023/12/09 08:37:44;;;;;;;25.73;13.50;;;;;;;5.78;80.71;96008.94;5008630;28;20192;-68
2023/12/09 08:40:11;;;;;;;45.77;14.93;;;;;;;5.79;80.77;96008.03;5006140;28;20643;-69
2023/12/09 08:42:38;;;;;;;44.30;15.93;;;;;;;5.80;80.82;96004.56;4998481;28;20180;-65
2023/12/09 08:45:05;;;;;;;27.90;13.77;;;;;;;5.75;80.98;95998.66;4999811;28;20442;-67
2023/12/09 08:47:30;;;;;;;25.30;12.93;;;;;;;5.70;81.74;96002.22;5005419;28;20470;-67
2023/12/09 08:49:55;;;;;;;26.27;13.73;;;;;;;5.89;80.52;95996.44;5004256;28;20428;-66
2023/12/09 08:52:21;;;;;;;23.90;13.50;;;;;;;5.91;80.65;96002.47;4999900;28;20209;-67
2023/12/09 08:54:47;;;;;;;29.97;11.50;;;;;;;5.68;81.75;96000.56;4999618;28;20238;-70
2023/12/09 08:57:12;;;;;;;30.00;14.20;;;;;;;5.70;81.68;96001.38;4999840;28;20204;-68
2023/12/09 08:59:37;;;;;;;39.00;16.10;;;;;;;5.86;81.24;95991.34;5004546;28;20283;-70
2023/12/09 09:02:03;;;;;;;39.70;15.57;;;;;;;5.93;81.20;95988.50;5001295;28;20183;-69
2023/12/09 09:04:28;;;;;;;40.90;16.57;;;;;;;5.87;81.57;95986.06;4989282;28;20259;-70
2023/12/09 09:06:53;;;;;;;42.33;15.30;;;;;;;5.90;81.34;95987.72;5002228;28;20202;-69
2023/12/09 09:09:19;;;;;;;26.37;13.57;;;;;;;5.86;81.32;95991.34;4996175;28;20658;-70
2023/12/09 09:11:44;;;;;;;37.47;16.00;;;;;;;5.88;81.83;95993.00;4999244;28;20196;-68
2023/12/09 09:14:10;;;;;;;29.33;14.50;;;;;;;5.94;81.51;95991.97;5006947;28;20196;-71
2023/12/09 09:16:35;;;;;;;31.23;12.87;;;;;;;6.00;80.85;96003.94;5006552;28;20653;-69
2023/12/09 09:19:01;;;;;;;20.73;11.80;;;;;;;5.96;81.15;95995.38;5003532;28;20676;-69
2023/12/09 09:21:26;;;;;;;24.10;13.50;;;;;;;6.04;80.70;95997.72;5001322;28;20228;-69
2023/12/09 09:23:52;;;;;;;21.13;12.53;;;;;;;6.00;80.70;95998.72;4998471;28;20190;-69
2023/12/09 09:26:17;;;;;;;22.23;13.50;;;;;;;5.98;80.95;95993.59;5005833;28;20200;-68
2023/12/09 09:28:43;;;;;;;24.70;13.03;;;;;;;6.08;80.63;95992.38;5006178;28;20184;-69
2023/12/09 09:31:10;;;;;;;21.63;12.33;;;;;;;6.09;80.85;95985.41;5006274;28;20828;-69
2023/12/09 09:33:36;;;;;;;22.97;12.50;;;;;;;6.11;80.39;95975.78;5004373;28;20184;-68
2023/12/09 09:36:01;;;;;;;28.40;15.13;;;;;;;6.14;80.04;95954.84;4995343;28;20470;-69
2023/12/09 09:38:27;;;;;;;27.00;13.33;;;;;;;6.19;80.24;95947.75;5008468;28;20279;-70
2023/12/09 09:40:52;;;;;;;31.00;14.10;;;;;;;6.18;80.17;95950.41;5008553;28;20194;-71
2023/12/09 09:43:24;;;;;;;25.60;14.80;;;;;;;6.13;80.95;95940.13;5011441;28;20184;-71
2023/12/09 09:45:53;;;;;;;21.37;14.40;;;;;;;6.08;80.96;95936.84;5012197;28;20202;-71
2023/12/09 09:48:24;;;;;;;22.97;13.23;;;;;;;6.07;81.43;95933.38;5011129;28;20805;-68
2023/12/09 09:50:52;;;;;;;24.13;13.67;;;;;;;6.20;80.72;95941.63;5000181;28;20522;-71
2023/12/09 09:53:34;;;;;;;26.83;13.90;;;;;;;6.22;79.85;95950.25;5007374;28;20458;-70
2023/12/09 09:56:01;;;;;;;28.73;15.57;;;;;;;6.27;80.31;95950.09;5008729;28;20506;-71
2023/12/09 09:58:27;;;;;;;26.23;13.73;;;;;;;6.25;79.80;95941.47;5004515;28;20462;-69
2023/12/09 10:00:55;;;;;;;23.10;13.57;;;;;;;6.21;80.30;95932.88;4998338;28;20459;-69
2023/12/09 10:03:21;;;;;;;24.20;14.30;;;;;;;6.18;80.69;95925.19;4995155;28;20272;-68
2023/12/09 10:05:47;;;;;;;26.60;15.90;;;;;;;6.28;80.07;95925.72;5003551;28;20938;-70
2023/12/09 10:08:13;;;;;;;28.43;14.87;;;;;;;6.21;80.49;95911.19;5001207;28;20640;-70
2023/12/09 10:10:38;;;;;;;25.93;13.70;;;;;;;6.20;80.23;95904.28;5005149;28;20453;-70
2023/12/09 10:13:04;;;;;;;24.20;12.43;;;;;;;6.14;80.63;95903.63;5000802;28;20204;-70
2023/12/09 10:15:29;;;;;;;29.13;14.20;;;;;;;6.18;80.57;95895.69;5006280;28;20182;-69
2023/12/09 10:18:01;;;;;;;42.27;17.53;;;;;;;6.07;80.65;95894.31;5000940;28;20226;-70
2023/12/09 10:20:27;;;;;;;26.27;13.20;;;;;;;6.14;80.66;95901.00;5008988;28;20258;-69
2023/12/09 10:22:53;;;;;;;33.33;15.47;;;;;;;6.11;80.67;95895.88;5002639;28;20523;-69
2023/12/09 10:25:24;;;;;;;30.07;14.80;;;;;;;6.14;80.87;95895.78;4998129;28;20514;-69
2023/12/09 10:27:50;;;;;;;29.10;13.20;;;;;;;6.24;80.40;95892.88;5003575;28;20254;-69
2023/12/09 10:30:20;;;;;;;24.77;13.17;;;;;;;6.30;80.18;95888.28;5007863;28;20449;-68
2023/12/09 10:32:46;;;;;;;24.17;15.53;;;;;;;6.34;79.88;95883.81;5006412;28;20618;-68
2023/12/09 10:35:12;;;;;;;22.00;14.40;;;;;;;6.30;79.51;95879.63;5002429;28;20530;-70
2023/12/09 10:37:37;;;;;;;24.83;14.23;;;;;;;6.35;80.33;95880.28;5005098;28;20613;-70
2023/12/09 10:40:08;;;;;;;38.33;16.73;;;;;;;6.45;79.58;95879.09;5004442;28;20241;-69
2023/12/09 10:42:37;;;;;;;67.33;17.57;;;;;;;6.51;79.33;95886.66;4999793;28;20263;-68
2023/12/09 10:45:05;;;;;;;44.60;15.33;;;;;;;6.39;79.60;95870.63;5000783;28;20441;-67
2023/12/09 10:47:30;;;;;;;31.10;14.90;;;;;;;6.34;79.84;95874.25;5007859;28;20581;-69
2023/12/09 10:49:56;;;;;;;33.00;14.87;;;;;;;6.49;78.98;95859.78;5006761;28;21486;-69
2023/12/09 10:52:22;;;;;;;29.03;14.40;;;;;;;6.43;79.50;95851.38;5007926;28;20258;-70
2023/12/09 10:54:48;;;;;;;27.37;12.83;;;;;;;6.52;79.46;95835.38;5000553;28;20242;-69
2023/12/09 10:57:15;;;;;;;22.30;13.53;;;;;;;6.51;79.52;95824.09;5005027;28;20200;-69
2023/12/09 10:59:41;;;;;;;23.87;14.20;;;;;;;6.50;80.01;95822.41;5010176;28;20199;-70
2023/12/09 11:02:08;;;;;;;23.50;12.50;;;;;;;6.38;80.03;95832.41;5009156;28;20462;-71
2023/12/09 11:04:34;;;;;;;24.83;14.50;;;;;;;6.43;79.24;95814.88;5007279;28;20446;-70
2023/12/09 11:07:03;;;;;;;24.00;13.70;;;;;;;6.30;79.91;95815.31;4993716;28;20451;-71
2023/12/09 11:09:31;;;;;;;25.03;13.50;;;;;;;6.32;79.58;95802.25;5006743;28;20189;-71
2023/12/09 11:11:56;;;;;;;50.80;15.90;;;;;;;6.54;78.71;95792.72;5008767;28;20502;-70
2023/12/09 11:14:28;;;;;;;51.70;16.50;;;;;;;6.67;78.05;95781.81;5008314;28;20492;-69
2023/12/09 11:16:53;;;;;;;55.47;16.30;;;;;;;6.60;79.44;95777.75;5006064;28;20219;-72
2023/12/09 11:19:22;;;;;;;31.27;15.20;;;;;;;6.71;78.21;95770.38;4993843;28;20435;-70